Time;durP1;ratioP1;P1;durP2;ratioP2;P2;SDS_P1;SDS_P2;PMS_P1;PMS_P2;Temp;Humidity;BMP_temperature;BMP_pressure;BME280_temperature;BME280_humidity;BME280_pressure;Samples;Min_cycle;Max_cycle;Signal;HPM_P1;HPM_P2
2022/05/21 00:00:34;;;;;;;4.15;1.70;;;;;;;16.53;64.29;101054.19;5052654;27;102053;-53
2022/05/21 00:03:00;;;;;;;3.83;1.73;;;;;;;16.52;64.29;101053.38;5054498;27;101964;-53
2022/05/21 00:05:29;;;;;;;3.08;1.52;;;;;;;16.52;64.62;101052.56;5052150;27;103952;-53
2022/05/21 00:07:56;;;;;;;2.53;1.92;;;;;;;16.52;64.22;101045.13;5041522;27;102297;-53
2022/05/21 00:10:25;;;;;;;3.30;1.80;;;;;;;16.53;64.43;101048.69;5052650;27;101877;-53
2022/05/21 00:12:51;;;;;;;2.93;1.70;;;;;;;16.51;63.93;101029.75;5054392;27;102017;-53
2022/05/21 00:15:21;;;;;;;2.45;2.20;;;;;;;16.52;64.46;101033.34;5052648;27;103908;-53
2022/05/21 00:17:48;;;;;;;2.47;1.83;;;;;;;16.52;64.26;101036.09;5053618;27;102124;-53
2022/05/21 00:23:09;;;;;;;2.35;1.80;;;;;;;16.51;64.06;101029.75;5033476;27;102538;-53
2022/05/21 00:25:36;;;;;;;2.15;1.73;;;;;;;16.52;63.93;101020.41;5039213;27;103951;-53
2022/05/21 00:28:03;;;;;;;2.10;1.48;;;;;;;16.51;64.56;101018.75;5051946;27;102418;-53
2022/05/21 00:30:32;;;;;;;2.10;1.75;;;;;;;16.52;64.06;101014.09;5051062;27;102042;-53
2022/05/21 00:32:59;;;;;;;1.85;1.48;;;;;;;16.52;64.36;101014.91;5053790;27;102514;-53
2022/05/21 00:35:26;;;;;;;3.67;1.67;;;;;;;16.52;64.49;101017.66;5051738;27;103941;-53
2022/05/21 00:37:52;;;;;;;2.17;1.80;;;;;;;16.52;64.38;101009.41;5053021;27;101974;-58
2022/05/21 00:40:19;;;;;;;3.50;1.60;;;;;;;16.52;64.34;101016.84;5051220;27;101898;-53
2022/05/21 00:42:46;;;;;;;1.85;1.58;;;;;;;16.52;63.96;101014.09;5051349;27;102282;-53
2022/05/21 00:45:14;;;;;;;2.22;1.50;;;;;;;16.49;64.13;101007.28;5050362;27;103937;-53
2022/05/21 00:47:43;;;;;;;;;;;;;;;16.51;64.42;101005.03;5053809;27;102307;-53
2022/05/21 00:50:12;;;;;;;2.38;1.60;;;;;;;16.50;64.33;100995.16;5049625;27;102112;-52
2022/05/21 00:52:39;;;;;;;2.38;1.65;;;;;;;16.51;64.20;101010.50;5033787;27;102092;-53
2022/05/21 00:55:11;;;;;;;3.38;1.70;;;;;;;16.51;64.57;101006.97;5050610;27;103935;-53
2022/05/21 00:57:42;;;;;;;1.70;1.60;;;;;;;16.50;64.42;100988.84;5052707;27;101942;-53
2022/05/21 01:00:12;;;;;;;2.10;1.65;;;;;;;16.51;63.84;100993.22;5051147;27;102084;-53
2022/05/21 01:02:47;;;;;;;2.53;1.90;;;;;;;16.50;64.18;100989.66;5044466;27;102405;-52
2022/05/21 01:05:16;;;;;;;2.00;1.75;;;;;;;16.50;64.13;100986.91;5045658;27;104008;-53
2022/05/21 01:07:45;;;;;;;1.52;1.42;;;;;;;16.50;64.06;100984.16;5050367;27;102433;-53
2022/05/21 01:10:15;;;;;;;3.78;2.08;;;;;;;16.49;64.22;100982.56;5050155;27;102559;-53
2022/05/21 01:12:47;;;;;;;2.67;2.00;;;;;;;16.49;64.10;100977.06;5053101;27;102129;-53
2022/05/21 01:15:17;;;;;;;2.00;1.70;;;;;;;16.48;63.69;100972.69;5051181;27;104198;-53
2022/05/21 01:17:46;;;;;;;3.20;2.00;;;;;;;16.49;64.38;100971.56;5052724;27;101750;-53
2022/05/21 01:20:16;;;;;;;2.47;1.45;;;;;;;16.49;64.28;100966.06;5050791;27;102472;-52
2022/05/21 01:22:46;;;;;;;2.47;1.88;;;;;;;16.49;63.83;100965.25;5053454;27;102328;-53
2022/05/21 01:25:17;;;;;;;2.58;1.67;;;;;;;16.49;64.19;100966.06;5047242;27;103830;-53
2022/05/21 01:27:44;;;;;;;2.33;2.13;;;;;;;16.50;63.87;100958.63;5052447;27;101797;-53
2022/05/21 01:30:16;;;;;;;1.90;1.52;;;;;;;16.49;63.92;100960.56;5051653;27;102419;-53
2022/05/21 01:32:45;;;;;;;2.00;1.80;;;;;;;16.50;64.49;100955.88;5053217;27;102722;-53
2022/05/21 01:35:12;;;;;;;2.85;1.52;;;;;;;16.50;64.10;100953.94;5050653;27;103948;-53
2022/05/21 01:37:39;;;;;;;2.03;1.75;;;;;;;16.50;64.06;100955.88;5052281;27;101946;-53
2022/05/21 01:40:11;;;;;;;2.55;1.65;;;;;;;16.49;64.00;100954.28;5051539;27;101854;-53
2022/05/21 01:42:38;;;;;;;1.70;1.58;;;;;;;16.49;63.73;100951.53;5053005;27;102785;-52
2022/05/21 01:45:06;;;;;;;1.85;1.65;;;;;;;16.48;64.38;100953.47;5040204;27;103639;-53
2022/05/21 01:47:34;;;;;;;2.92;1.77;;;;;;;16.49;63.83;100943.28;5033436;27;102721;-53
2022/05/21 01:50:01;;;;;;;3.20;1.77;;;;;;;16.50;63.79;100947.66;5031802;27;102209;-53
2022/05/21 01:52:28;;;;;;;2.55;1.88;;;;;;;16.48;64.07;100942.47;5037148;27;102520;-53
2022/05/21 01:54:54;;;;;;;2.45;1.63;;;;;;;16.47;64.41;100949.06;5048373;27;103984;-53
2022/05/21 01:57:22;;;;;;;2.20;2.00;;;;;;;16.48;63.80;100950.72;5051575;27;101992;-52
2022/05/21 01:59:48;;;;;;;2.17;1.77;;;;;;;16.47;64.04;100940.81;5051538;27;101748;-52
2022/05/21 02:02:16;;;;;;;2.35;1.70;;;;;;;16.48;64.09;100941.63;5052031;27;102315;-53
2022/05/21 02:04:42;;;;;;;2.38;2.10;;;;;;;16.47;63.88;100943.56;5051526;27;104295;-53
2022/05/21 02:07:09;;;;;;;2.75;1.80;;;;;;;16.49;64.31;100949.59;5051660;27;102552;-53
2022/05/21 02:09:35;;;;;;;1.60;1.50;;;;;;;16.48;63.89;100950.72;5050913;27;102411;-52
2022/05/21 02:12:02;;;;;;;2.20;2.00;;;;;;;16.48;63.90;100947.97;5052480;27;102741;-53
2022/05/21 02:14:31;;;;;;;2.75;1.60;;;;;;;16.48;64.11;100952.63;5048811;27;103898;-53
2022/05/21 02:16:57;;;;;;;2.40;1.90;;;;;;;16.47;64.19;100957.31;5051446;27;102010;-53
2022/05/21 02:19:24;;;;;;;2.38;1.92;;;;;;;16.47;63.79;100946.31;5051424;27;102215;-54
2022/05/21 02:21:51;;;;;;;2.42;2.13;;;;;;;16.47;63.79;100951.81;5052433;27;102584;-53
2022/05/21 02:24:18;;;;;;;1.80;1.45;;;;;;;16.48;63.92;100950.72;5054930;27;103887;-53
2022/05/21 02:26:44;;;;;;;1.83;1.50;;;;;;;16.48;64.12;100945.22;5055145;27;102441;-53
2022/05/21 02:29:10;;;;;;;1.67;1.58;;;;;;;16.46;64.14;100939.19;5050994;27;102353;-53
2022/05/21 02:31:38;;;;;;;1.77;1.63;;;;;;;16.47;64.10;100945.50;5035483;27;102295;-53
2022/05/21 02:34:04;;;;;;;2.17;1.52;;;;;;;16.47;63.67;100951.81;5034298;28;104032;-53
2022/05/21 02:39:30;;;;;;;1.38;1.27;;;;;;;16.47;63.79;100951.81;5034553;28;102361;-54
2022/05/21 02:41:58;;;;;;;2.20;1.67;;;;;;;16.47;64.27;100951.00;5035517;27;102421;-53
2022/05/21 02:44:25;;;;;;;5.85;1.70;;;;;;;16.47;64.10;100948.25;5040994;27;103794;-53
2022/05/21 02:46:54;;;;;;;2.05;1.77;;;;;;;16.47;63.57;100951.00;5054842;27;102600;-53
2022/05/21 02:49:20;;;;;;;2.00;1.80;;;;;;;16.46;64.09;100950.19;5052061;27;102352;-53
2022/05/21 02:51:47;;;;;;;1.90;1.73;;;;;;;16.47;64.35;100949.06;5055110;27;102617;-53
2022/05/21 02:54:14;;;;;;;1.88;1.63;;;;;;;16.47;63.60;100948.25;5054347;27;104034;-53
2022/05/21 02:56:47;;;;;;;2.38;1.60;;;;;;;16.47;63.93;100948.25;5054012;27;101988;-53
2022/05/21 02:59:14;;;;;;;1.88;1.70;;;;;;;16.48;63.89;100949.88;5052973;27;102970;-54
2022/05/21 03:01:41;;;;;;;2.85;1.63;;;;;;;16.48;64.06;100945.22;5054934;27;102229;-53
2022/05/21 03:04:09;;;;;;;2.10;1.90;;;;;;;16.48;63.56;100947.97;5053386;27;103896;-53
2022/05/21 03:06:36;;;;;;;1.58;1.48;;;;;;;16.49;63.97;100944.09;5052185;27;102594;-53
2022/05/21 03:11:48;;;;;;;2.33;1.95;;;;;;;16.49;63.46;100949.59;5050930;27;102164;-52
2022/05/21 03:14:15;;;;;;;1.88;1.40;;;;;;;16.50;63.58;100950.41;5052441;27;104100;-53
2022/05/21 03:16:41;;;;;;;2.47;1.90;;;;;;;16.51;63.97;100941.03;5054196;27;102284;-53
2022/05/21 03:19:09;;;;;;;1.67;1.58;;;;;;;16.50;63.70;100948.47;5054204;27;101877;-53
2022/05/21 03:21:36;;;;;;;;;;;;;;;16.51;64.13;100944.59;5055062;27;102458;-53
2022/05/21 03:24:05;;;;;;;5.10;1.75;;;;;;;16.52;63.66;100938.00;5053733;27;104042;-53
2022/05/21 03:26:33;;;;;;;1.98;1.63;;;;;;;16.52;64.45;100940.75;5054059;27;101933;-53
2022/05/21 03:29:00;;;;;;;1.85;1.50;;;;;;;16.54;64.76;100940.41;5052739;27;102285;-53
2022/05/21 03:31:26;;;;;;;3.65;1.60;;;;;;;16.54;64.79;100946.72;5054756;27;102628;-53
2022/05/21 03:33:53;;;;;;;2.30;1.40;;;;;;;16.55;65.07;100944.78;5053693;27;103888;-53
2022/05/21 03:36:21;;;;;;;1.40;1.30;;;;;;;16.55;64.75;100934.63;5053788;27;101858;-53
2022/05/21 03:38:50;;;;;;;2.10;1.42;;;;;;;16.56;65.45;100932.69;5053627;27;102404;-54
2022/05/21 03:41:17;;;;;;;1.73;1.52;;;;;;;16.55;65.51;100926.41;5054345;27;102468;-53
2022/05/21 03:43:47;;;;;;;1.77;1.50;;;;;;;16.56;65.55;100924.47;5052039;27;104085;-53
2022/05/21 03:46:13;;;;;;;2.08;1.30;;;;;;;16.56;65.62;100928.00;5053939;27;101989;-53
2022/05/21 03:48:41;;;;;;;1.40;1.30;;;;;;;16.57;65.74;100935.13;5053453;27;101935;-53
2022/05/21 03:51:08;;;;;;;2.43;1.60;;;;;;;16.57;65.81;100937.88;5054723;27;101950;-53
2022/05/21 03:53:37;;;;;;;3.15;1.42;;;;;;;16.57;65.60;100935.13;5052930;27;104068;-53
2022/05/21 03:56:06;;;;;;;1.55;1.45;;;;;;;16.57;66.13;100929.63;5051569;27;101993;-53
2022/05/21 03:58:33;;;;;;;1.90;1.50;;;;;;;16.58;66.18;100942.25;5053088;27;101882;-53
2022/05/21 04:01:01;;;;;;;1.88;1.50;;;;;;;16.60;65.96;100941.13;5053734;27;103082;-53
2022/05/21 04:03:27;;;;;;;28.03;3.73;;;;;;;16.61;65.70;100940.00;5052886;27;103992;-53
2022/05/21 04:05:54;;;;;;;3.25;2.00;;;;;;;16.60;65.83;100944.69;5053503;27;102111;-53
2022/05/21 04:08:27;;;;;;;1.92;1.30;;;;;;;16.60;65.83;100941.13;5052647;27;102310;-53
2022/05/21 04:10:54;;;;;;;2.35;1.52;;;;;;;16.61;66.03;100940.00;5051753;27;102251;-53
2022/05/21 04:13:21;;;;;;;1.88;1.70;;;;;;;16.61;65.82;100949.06;5049068;27;104068;-53
2022/05/21 04:15:47;;;;;;;2.58;1.63;;;;;;;16.62;65.84;100950.69;5053799;27;101983;-53
2022/05/21 04:18:14;;;;;;;2.40;1.48;;;;;;;16.63;65.74;100954.28;5052718;27;102635;-53
2022/05/21 04:20:40;;;;;;;1.83;1.65;;;;;;;16.62;65.86;100941.63;5053246;27;102156;-53
2022/05/21 04:23:08;;;;;;;2.45;1.40;;;;;;;16.62;65.53;100938.88;5052742;27;104096;-53
2022/05/21 04:25:35;;;;;;;2.78;1.67;;;;;;;16.63;65.86;100937.78;5053456;27;102032;-53
2022/05/21 04:28:04;;;;;;;1.50;1.40;;;;;;;16.63;65.76;100948.78;5051770;27;102430;-53
2022/05/21 04:30:33;;;;;;;1.77;1.50;;;;;;;16.63;65.55;100955.09;5054321;27;102731;-53
2022/05/21 04:33:00;;;;;;;4.30;1.40;;;;;;;16.64;65.80;100967.69;5052609;27;103919;-53
2022/05/21 04:36:17;;;;;;;1.63;1.52;;;;;;;16.65;65.88;100965.75;5053328;27;102147;-53
2022/05/21 04:38:16;;;;;;;2.25;1.40;;;;;;;16.65;65.67;100969.31;5045878;27;103766;-53
2022/05/21 04:40:43;;;;;;;1.67;1.50;;;;;;;16.66;65.75;100964.63;5054075;27;102023;-53
2022/05/21 04:43:11;;;;;;;1.63;1.52;;;;;;;16.67;65.56;100960.78;5052562;27;104122;-53
2022/05/21 04:45:39;;;;;;;1.85;1.58;;;;;;;16.68;65.92;100962.41;5052201;27;102548;-53
2022/05/21 04:48:08;;;;;;;3.63;1.70;;;;;;;16.66;65.66;100954.47;5052386;27;102491;-54
2022/05/21 04:50:37;;;;;;;1.80;1.53;;;;;;;16.68;65.37;100951.41;5053218;27;102289;-53
2022/05/21 04:53:03;;;;;;;1.50;1.40;;;;;;;16.70;65.53;100943.69;5049159;27;103812;-53
2022/05/21 04:55:30;;;;;;;1.92;1.55;;;;;;;16.71;65.34;100945.31;5050840;27;102479;-53
2022/05/21 04:57:59;;;;;;;3.60;1.50;;;;;;;16.72;65.80;100936.75;5047600;27;102485;-53
2022/05/21 05:00:27;;;;;;;2.63;1.48;;;;;;;16.71;65.84;100932.38;5048449;27;102882;-53
2022/05/21 05:02:55;;;;;;;1.50;1.40;;;;;;;16.74;65.58;100933.72;5050578;27;103907;-53
2022/05/21 05:05:23;;;;;;;1.88;1.58;;;;;;;16.76;65.28;100931.47;5044829;27;102384;-53
2022/05/21 05:07:49;;;;;;;1.40;1.20;;;;;;;16.77;65.52;100924.88;5049079;27;102472;-53
2022/05/21 05:10:16;;;;;;;1.75;1.60;;;;;;;16.78;65.35;100916.31;5051373;27;102387;-53
2022/05/21 05:12:45;;;;;;;1.27;1.08;;;;;;;16.80;65.48;100914.06;5045203;27;103954;-53
2022/05/21 05:15:13;;;;;;;1.92;1.50;;;;;;;16.81;65.04;100912.94;5045301;27;102493;-53
2022/05/21 05:17:42;;;;;;;1.42;1.33;;;;;;;16.84;65.14;100913.44;5031321;27;102445;-53
2022/05/21 05:20:09;;;;;;;1.60;1.40;;;;;;;16.85;64.93;100913.16;5032775;28;102467;-53
2022/05/21 05:22:38;;;;;;;1.40;1.30;;;;;;;16.87;65.04;100921.88;5048576;27;103870;-53
2022/05/21 05:25:05;;;;;;;1.20;1.10;;;;;;;16.89;65.11;100916.91;5052447;27;102234;-53
2022/05/21 05:27:33;;;;;;;1.40;1.10;;;;;;;16.90;64.91;100910.28;5048080;27;102811;-53
2022/05/21 05:30:00;;;;;;;1.30;1.20;;;;;;;16.93;64.74;100906.91;5052159;27;102493;-52
2022/05/21 05:32:27;;;;;;;1.75;1.15;;;;;;;16.95;64.83;100907.44;5049052;27;104038;-52
2022/05/21 05:34:55;;;;;;;1.52;1.42;;;;;;;16.96;65.05;100903.53;5052779;27;102301;-53
2022/05/21 05:37:22;;;;;;;1.55;1.20;;;;;;;16.98;64.59;100887.53;5046925;27;102484;-53
2022/05/21 05:39:50;;;;;;;1.48;1.38;;;;;;;17.02;64.64;100893.22;5051753;27;102455;-52
2022/05/21 05:42:17;;;;;;;2.05;1.25;;;;;;;17.05;64.46;100887.91;5046728;27;104300;-54
2022/05/21 05:44:43;;;;;;;1.20;1.10;;;;;;;17.08;64.36;100888.44;5047390;27;104630;-53
2022/05/21 05:47:10;;;;;;;1.42;1.33;;;;;;;17.10;63.90;100891.69;5040462;27;102599;-52
2022/05/21 05:49:36;;;;;;;1.77;1.13;;;;;;;17.13;63.72;100889.16;5039453;27;102700;-53
2022/05/21 05:52:06;;;;;;;1.48;1.25;;;;;;;17.14;63.48;100881.69;5045757;27;103882;-53
2022/05/21 05:54:35;;;;;;;1.30;1.20;;;;;;;17.16;63.75;100880.25;5050063;27;102328;-52
2022/05/21 05:57:01;;;;;;;1.55;1.10;;;;;;;17.17;63.56;100881.09;5053650;27;102400;-52
2022/05/21 06:04:58;;;;;;;1.90;1.20;;;;;;;17.22;63.90;100869.94;5055932;27;102422;-53
2022/05/21 06:07:26;;;;;;;1.77;1.20;;;;;;;17.22;63.84;100868.00;5040169;27;102601;-52
2022/05/21 06:10:01;;;;;;;1.25;1.05;;;;;;;17.23;63.59;100863.31;5040934;27;101948;-52
2022/05/21 06:12:28;;;;;;;1.27;1.10;;;;;;;17.23;63.98;100866.88;5045283;27;103921;-52
2022/05/21 06:14:55;;;;;;;1.83;1.10;;;;;;;17.25;63.59;100861.06;5035536;27;101933;-52
2022/05/21 06:17:21;;;;;;;1.63;1.30;;;;;;;17.27;63.66;100864.31;5038472;27;102059;-53
2022/05/21 06:19:48;;;;;;;2.42;1.50;;;;;;;17.29;63.57;100857.38;5044728;27;102295;-52
2022/05/21 06:22:16;;;;;;;1.70;1.20;;;;;;;17.31;63.54;100854.34;5036954;27;103933;-53
2022/05/21 06:24:44;;;;;;;2.65;1.40;;;;;;;17.34;63.77;100850.94;5045354;27;102061;-53
2022/05/21 06:27:11;;;;;;;2.13;1.20;;;;;;;17.35;63.36;100838.81;5042370;27;102253;-56
2022/05/21 06:29:39;;;;;;;1.87;1.30;;;;;;;17.36;63.43;100845.94;5045552;27;102410;-52
2022/05/21 06:32:07;;;;;;;2.03;1.45;;;;;;;17.38;63.21;100843.69;5049601;27;103901;-52
2022/05/21 06:34:39;;;;;;;1.48;1.27;;;;;;;17.38;63.32;100849.19;5047202;27;102094;-52
2022/05/21 06:37:07;;;;;;;3.35;1.10;;;;;;;17.40;63.26;100841.44;5036672;27;102073;-52
2022/05/21 06:39:35;;;;;;;1.45;1.35;;;;;;;17.41;63.19;100837.53;5043074;27;102134;-52
2022/05/21 06:42:21;;;;;;;1.55;1.45;;;;;;;17.42;63.45;100839.19;5048539;27;103961;-52
2022/05/21 06:44:47;;;;;;;2.45;1.25;;;;;;;17.43;63.08;100837.25;5053185;27;102052;-52
2022/05/21 06:47:15;;;;;;;1.27;1.10;;;;;;;17.43;63.00;100835.31;5046827;27;105244;-52
2022/05/21 06:49:43;;;;;;;1.45;1.20;;;;;;;17.45;63.29;100837.72;5043654;27;102466;-52
2022/05/21 06:52:10;;;;;;;1.70;1.52;;;;;;;17.44;63.13;100836.91;5049476;27;103985;-52
2022/05/21 06:54:37;;;;;;;1.30;1.20;;;;;;;17.45;63.09;100838.53;5063921;27;102010;-52
2022/05/21 06:57:08;;;;;;;1.40;1.10;;;;;;;17.46;63.24;100828.38;5058516;27;102137;-52
2022/05/21 06:59:39;;;;;;;2.83;1.30;;;;;;;17.46;63.18;100823.66;5056829;27;103138;-52
2022/05/21 07:02:07;;;;;;;3.38;1.35;;;;;;;17.47;63.02;100821.72;5070728;27;104020;-52
2022/05/21 07:07:43;;;;;;;2.72;1.20;;;;;;;17.46;63.24;100812.66;5053365;27;102198;-53
2022/05/21 07:10:15;;;;;;;1.40;1.20;;;;;;;17.48;63.44;100810.41;5053819;27;102295;-52
2022/05/21 07:12:42;;;;;;;1.55;1.23;;;;;;;17.47;63.10;100803.28;5047558;27;104277;-52
2022/05/21 07:15:11;;;;;;;2.38;1.02;;;;;;;17.48;63.49;100795.81;5050350;27;102498;-52
2022/05/21 07:17:38;;;;;;;2.33;1.15;;;;;;;17.48;63.17;100798.59;5047401;27;102070;-52
2022/05/21 07:20:10;;;;;;;1.58;1.15;;;;;;;17.49;63.13;100794.69;5045765;27;102101;-52
2022/05/21 07:22:40;;;;;;;1.08;1.05;;;;;;;17.50;63.35;100799.91;5046202;27;103943;-52
2022/05/21 07:25:07;;;;;;;1.92;1.20;;;;;;;17.51;63.59;100792.44;5050015;27;102563;-52
2022/05/21 07:27:34;;;;;;;1.30;1.20;;;;;;;17.50;63.18;100788.91;5035639;27;101958;-52
2022/05/21 07:30:00;;;;;;;1.15;1.05;;;;;;;17.51;63.39;100782.25;5052918;27;102154;-52
2022/05/21 07:32:28;;;;;;;1.23;1.13;;;;;;;17.51;63.30;100781.44;5051806;27;103904;-53
2022/05/21 07:34:57;;;;;;;1.25;1.15;;;;;;;17.52;63.45;100783.88;5050862;27;102021;-53
2022/05/21 07:37:23;;;;;;;1.40;1.20;;;;;;;17.52;63.03;100786.63;5041149;27;102039;-52
2022/05/21 07:39:51;;;;;;;1.33;1.00;;;;;;;17.52;62.99;100789.38;5054922;27;102456;-52
2022/05/21 07:42:19;;;;;;;3.40;1.20;;;;;;;17.52;63.03;100786.63;5051877;27;104048;-53
2022/05/21 07:44:48;;;;;;;1.60;1.30;;;;;;;17.54;63.13;100783.56;5051438;27;102171;-53
2022/05/21 07:47:15;;;;;;;1.98;1.20;;;;;;;17.53;63.27;100781.94;5049976;27;105076;-52
2022/05/21 07:49:43;;;;;;;1.40;1.30;;;;;;;17.53;63.59;100790.22;5037135;27;102462;-53
2022/05/21 07:52:09;;;;;;;1.42;1.20;;;;;;;17.52;63.03;100778.38;5043144;27;104295;-52
2022/05/21 07:54:36;;;;;;;1.30;1.20;;;;;;;17.53;63.63;100782.75;5053129;27;102000;-52
2022/05/21 07:57:03;;;;;;;2.65;1.67;;;;;;;17.52;63.14;100783.88;5046486;27;101892;-52
2022/05/21 07:59:31;;;;;;;1.65;1.13;;;;;;;17.53;63.46;100780.00;5052575;27;102379;-52
2022/05/21 08:01:58;;;;;;;1.42;1.20;;;;;;;17.52;63.04;100775.63;5050557;27;103923;-52
2022/05/21 08:04:26;;;;;;;1.05;0.95;;;;;;;17.53;63.40;100771.75;5052256;27;102325;-52
2022/05/21 08:06:54;;;;;;;1.73;1.30;;;;;;;17.52;63.46;100756.34;5052089;27;102009;-52
2022/05/21 08:09:24;;;;;;;1.70;1.10;;;;;;;17.53;63.54;100755.25;5063675;27;102157;-53
2022/05/21 08:11:52;;;;;;;1.33;1.00;;;;;;;17.53;63.47;100751.69;5050536;27;103901;-52
2022/05/21 08:14:20;;;;;;;1.40;1.10;;;;;;;17.53;63.48;100752.50;5052918;27;102431;-52
2022/05/21 08:16:49;;;;;;;1.70;1.20;;;;;;;17.54;63.57;100754.09;5052081;27;102447;-52
2022/05/21 08:19:16;;;;;;;1.40;1.30;;;;;;;17.53;63.54;100744.25;5050271;27;102256;-52
2022/05/21 08:21:42;;;;;;;1.45;1.13;;;;;;;17.54;63.12;100742.28;5051645;27;103906;-52
2022/05/21 08:27:02;;;;;;;1.98;1.52;;;;;;;17.53;63.38;100741.50;5049450;27;102207;-52
2022/05/21 08:29:32;;;;;;;1.42;1.33;;;;;;;17.53;63.17;100730.47;5053289;27;102437;-52
2022/05/21 08:32:00;;;;;;;1.60;1.50;;;;;;;17.54;63.21;100737.59;5051918;27;104096;-52
2022/05/21 08:34:27;;;;;;;1.70;1.38;;;;;;;17.53;63.19;100733.22;5052578;27;101859;-52
2022/05/21 08:36:54;;;;;;;1.40;1.30;;;;;;;17.54;63.43;100737.59;5051156;27;102398;-52
2022/05/21 08:39:22;;;;;;;2.05;1.33;;;;;;;17.53;63.49;100724.16;5053190;27;102164;-52
2022/05/21 08:41:53;;;;;;;3.50;1.42;;;;;;;17.52;63.56;100739.84;5051718;27;103885;-52
2022/05/21 08:44:27;;;;;;;1.73;1.38;;;;;;;17.53;63.39;100735.19;5052397;27;102347;-52
2022/05/21 08:47:08;;;;;;;2.08;1.50;;;;;;;17.53;63.42;100743.44;5050503;27;101942;-52
2022/05/21 08:49:40;;;;;;;1.42;1.20;;;;;;;17.52;63.16;100728.84;5053250;27;102311;-52
2022/05/21 08:52:14;;;;;;;1.40;1.30;;;;;;;17.53;63.41;100726.91;5051254;27;103948;-52
2022/05/21 08:54:44;;;;;;;1.50;1.30;;;;;;;17.52;63.37;100731.59;5052416;27;101905;-52
2022/05/21 08:57:21;;;;;;;1.50;1.40;;;;;;;17.52;63.30;100717.03;5047113;27;102073;-52
2022/05/21 08:59:55;;;;;;;1.63;1.42;;;;;;;17.51;63.22;100718.97;5051848;27;102097;-52
2022/05/21 09:02:29;;;;;;;3.60;1.60;;;;;;;17.51;63.19;100727.22;5050336;27;103911;-52
2022/05/21 09:04:57;;;;;;;1.40;1.25;;;;;;;17.51;63.68;100727.22;5051650;27;102100;-52
2022/05/21 09:07:30;;;;;;;1.80;1.33;;;;;;;17.50;63.44;100714.59;5050922;27;101977;-52
2022/05/21 09:10:14;;;;;;;1.50;1.40;;;;;;;17.50;63.47;100730.31;5048847;27;102555;-52
2022/05/21 09:12:52;;;;;;;1.20;1.10;;;;;;;17.49;63.34;100718.50;5040996;27;104004;-52
2022/05/21 09:18:08;;;;;;;1.45;1.35;;;;;;;17.49;63.58;100707.50;5048721;27;102318;-52
2022/05/21 09:20:45;;;;;;;1.92;1.40;;;;;;;17.50;63.42;100709.09;5048755;27;102085;-52
2022/05/21 09:23:11;;;;;;;1.55;1.40;;;;;;;17.49;63.58;100696.47;5050898;27;103772;-52
2022/05/21 09:25:39;;;;;;;1.40;1.30;;;;;;;17.48;63.51;100694.84;5051608;27;102300;-52
2022/05/21 09:28:07;;;;;;;1.35;1.25;;;;;;;17.48;63.26;100691.28;5050895;27;101941;-52
2022/05/21 09:30:36;;;;;;;2.63;1.35;;;;;;;17.47;63.56;100687.72;5040990;27;102343;-52
2022/05/21 09:33:20;;;;;;;;;;;;;;;17.47;63.59;100698.72;5035469;27;103903;-52
2022/05/21 09:35:53;;;;;;;2.65;1.35;;;;;;;17.47;63.83;100692.41;5040033;27;102368;-52
2022/05/21 09:38:23;;;;;;;2.10;1.50;;;;;;;17.46;63.34;100694.38;5045566;27;102603;-53
2022/05/21 09:41:04;;;;;;;1.80;1.30;;;;;;;17.46;63.45;100691.59;5047672;27;103861;-52
2022/05/21 09:46:26;;;;;;;2.70;1.50;;;;;;;17.45;63.85;100684.47;5045498;27;101874;-53
2022/05/21 09:48:54;;;;;;;1.98;1.30;;;;;;;17.45;63.60;100681.72;5051113;27;101920;-52
2022/05/21 09:51:25;;;;;;;1.57;1.47;;;;;;;17.45;63.35;100672.66;5051567;27;102057;-52
2022/05/21 09:53:52;;;;;;;2.25;1.40;;;;;;;17.44;63.72;100674.59;5037534;27;103995;-52
2022/05/21 09:56:22;;;;;;;1.65;1.55;;;;;;;17.43;63.69;100661.97;5040476;27;102632;-53
2022/05/21 09:58:51;;;;;;;4.10;1.85;;;;;;;17.59;63.17;100658.78;5047651;27;102229;-54
2022/05/21 10:01:33;;;;;;;2.88;1.50;;;;;;;17.52;63.49;100653.75;5048565;27;102105;-53
2022/05/21 10:04:09;;;;;;;8.32;1.65;;;;;;;17.48;63.52;100652.75;5039541;27;103941;-52
2022/05/21 10:06:42;;;;;;;1.73;1.60;;;;;;;17.45;63.90;100651.44;5047156;27;102324;-54
2022/05/21 10:12:07;;;;;;;2.60;1.63;;;;;;;17.44;63.28;100644.34;5048240;27;101950;-52
2022/05/21 10:14:41;;;;;;;2.83;1.65;;;;;;;17.44;63.74;100635.28;5044762;27;104030;-53
2022/05/21 10:17:13;;;;;;;3.97;1.50;;;;;;;17.43;63.59;100626.22;5050869;27;101939;-52
2022/05/21 10:19:46;;;;;;;2.95;1.80;;;;;;;17.41;63.71;100628.47;5050284;27;102442;-52
2022/05/21 10:22:31;;;;;;;2.47;1.65;;;;;;;17.42;63.87;100612.78;5050539;27;101986;-52
2022/05/21 10:25:04;;;;;;;2.22;1.63;;;;;;;17.40;63.40;100610.34;5050066;27;103886;-53
2022/05/21 10:28:16;;;;;;;2.00;1.80;;;;;;;17.40;63.97;100609.53;5050495;27;101923;-52
2022/05/21 10:31:10;;;;;;;2.42;1.27;;;;;;;17.38;63.50;100590.63;5013281;27;102471;-52
2022/05/21 10:33:49;;;;;;;3.40;1.77;;;;;;;17.39;63.57;100594.97;5031058;27;102720;-52
2022/05/21 10:36:28;;;;;;;2.28;1.70;;;;;;;17.40;64.04;100595.78;5030390;28;104072;-52
2022/05/21 10:39:09;;;;;;;1.85;1.67;;;;;;;17.39;63.71;100594.97;5036617;27;101984;-52
2022/05/21 10:42:17;;;;;;;4.10;2.03;;;;;;;17.38;63.93;100596.13;5039422;27;102627;-52
2022/05/21 10:44:58;;;;;;;1.92;1.65;;;;;;;17.37;63.55;100588.97;5034933;27;102006;-52
2022/05/21 10:47:40;;;;;;;2.53;1.75;;;;;;;17.37;64.16;100593.66;5033539;27;103936;-53
2022/05/21 10:50:24;;;;;;;2.15;1.60;;;;;;;17.36;63.73;100584.59;5040272;27;105587;-52
2022/05/21 10:53:26;;;;;;;1.90;1.70;;;;;;;17.36;63.63;100587.38;5035973;27;102407;-52
2022/05/21 10:56:00;;;;;;;2.80;1.65;;;;;;;17.37;64.13;100583.47;5035016;27;102384;-52
2022/05/21 10:58:49;;;;;;;2.88;1.83;;;;;;;17.35;63.65;100583.00;5033709;27;103872;-53
2022/05/21 11:01:25;;;;;;;1.95;1.77;;;;;;;17.35;63.72;100580.25;5053245;27;102577;-53
2022/05/21 11:04:13;;;;;;;2.92;1.90;;;;;;;17.35;63.99;100573.94;5053923;27;102147;-54
2022/05/21 11:07:10;;;;;;;2.17;1.92;;;;;;;17.36;64.12;100570.06;5044987;27;102899;-53
2022/05/21 11:09:43;;;;;;;1.92;1.63;;;;;;;17.36;64.28;100570.84;5047662;27;103579;-52
2022/05/21 11:12:16;;;;;;;6.90;1.88;;;;;;;17.38;64.10;100568.59;5046325;27;102661;-52
2022/05/21 11:14:49;;;;;;;3.00;1.85;;;;;;;17.40;63.73;100555.31;5045795;27;102259;-53
2022/05/21 11:17:29;;;;;;;2.63;1.90;;;;;;;17.42;63.52;100558.59;5062078;27;102735;-52
2022/05/21 11:20:01;;;;;;;1.63;1.52;;;;;;;17.43;63.13;100565.69;5050569;27;103901;-52
2022/05/21 11:22:36;;;;;;;2.55;1.52;;;;;;;17.44;63.50;100561.81;5053041;27;101961;-52
2022/05/21 11:25:12;;;;;;;2.58;1.73;;;;;;;17.45;63.72;100565.34;5048491;27;102249;-52
2022/05/21 11:27:46;;;;;;;2.13;1.88;;;;;;;17.44;63.21;100559.06;5048071;27;102623;-52
2022/05/21 11:30:17;;;;;;;4.38;1.60;;;;;;;17.44;63.69;100561.81;5049802;27;103948;-52
2022/05/21 11:38:52;;;;;;;2.22;1.70;;;;;;;17.41;63.83;100540.44;4983061;28;102358;-52
2022/05/21 11:41:30;;;;;;;1.73;1.63;;;;;;;17.41;63.76;100534.94;4989375;28;104013;-52
2022/05/21 11:46:55;;;;;;;3.00;1.70;;;;;;;17.40;64.07;100518.75;5052107;27;101794;-52
2022/05/21 11:49:39;;;;;;;1.90;1.70;;;;;;;17.39;64.04;100520.72;5053886;27;102193;-51
2022/05/21 11:52:44;;;;;;;1.85;1.70;;;;;;;17.39;64.07;100509.69;5038647;27;103955;-51
2022/05/21 11:55:17;;;;;;;4.47;1.90;;;;;;;17.38;64.16;100502.59;5035906;27;102517;-51
2022/05/21 11:57:48;;;;;;;2.10;1.88;;;;;;;17.37;63.87;100489.94;5052423;27;102417;-51
2022/05/21 12:00:45;;;;;;;2.25;1.90;;;;;;;17.36;64.19;100488.34;5053013;27;102069;-51
2022/05/21 12:03:19;;;;;;;1.67;1.58;;;;;;;17.36;63.76;100485.59;5028181;27;104017;-51
2022/05/21 12:05:53;;;;;;;3.45;1.75;;;;;;;17.36;64.11;100482.84;5031890;27;101886;-51
2022/05/21 12:08:36;;;;;;;2.08;1.65;;;;;;;17.36;64.03;100480.09;5045812;27;102730;-51